createdAt,value
2017-01-30T00:00:28.922Z,1008.99
2017-01-30T00:01:35.086Z,1008.98
2017-01-30T00:02:39.290Z,1008.98
2017-01-30T00:03:44.494Z,1008.92
2017-01-30T00:04:49.692Z,1008.97
2017-01-30T00:05:55.858Z,1008.92
2017-01-30T00:07:02.035Z,1008.91
2017-01-30T00:08:07.312Z,1008.89
2017-01-30T00:09:13.436Z,1008.87
2017-01-30T00:10:19.610Z,1008.84
2017-01-30T00:11:24.901Z,1008.82
2017-01-30T00:12:31.069Z,1008.8
2017-01-30T00:13:35.272Z,1008.76
2017-01-30T00:14:40.449Z,1008.74
2017-01-30T00:15:45.649Z,1008.75
2017-01-30T00:16:50.851Z,1008.7
2017-01-30T00:17:57.032Z,1008.71
2017-01-30T00:19:03.210Z,1008.65
2017-01-30T00:20:08.396Z,1008.65
2017-01-30T00:21:13.705Z,1008.59
2017-01-30T00:22:18.905Z,1008.6
2017-01-30T00:23:25.063Z,1008.59
2017-01-30T00:24:30.282Z,1008.6
2017-01-30T00:25:35.482Z,1008.54
2017-01-30T00:26:40.651Z,1008.48
2017-01-30T00:27:45.901Z,1008.54
2017-01-30T00:28:51.031Z,1008.53
2017-01-30T00:29:57.196Z,1008.5
2017-01-30T00:31:03.402Z,1008.5
2017-01-30T00:32:07.562Z,1008.44
2017-01-30T00:33:11.823Z,1008.5
2017-01-30T00:34:18.007Z,1008.46
2017-01-30T00:35:24.173Z,1008.41
2017-01-30T00:36:28.402Z,1008.41
2017-01-30T00:37:32.638Z,1008.35
2017-01-30T00:38:37.802Z,1008.32
2017-01-30T00:39:43.978Z,1008.38
2017-01-30T00:40:49.233Z,1008.31
2017-01-30T00:41:55.378Z,1008.32
2017-01-30T00:42:59.641Z,1008.31
2017-01-30T00:44:04.964Z,1008.34
2017-01-30T00:45:09.187Z,1008.28
2017-01-30T00:46:13.419Z,1008.25
2017-01-30T00:47:18.623Z,1008.23
2017-01-30T00:48:23.827Z,1008.29
2017-01-30T00:49:28.014Z,1008.3
2017-01-30T00:50:33.194Z,1008.27
2017-01-30T00:51:38.391Z,1008.25
2017-01-30T00:52:44.565Z,1008.26
2017-01-30T00:53:49.820Z,1008.2
2017-01-30T00:54:54.962Z,1008.23
2017-01-30T00:56:00.189Z,1008.2
2017-01-30T00:57:06.318Z,1008.19
2017-01-30T00:58:11.489Z,1008.19
2017-01-30T00:59:17.668Z,1008.16
2017-01-30T01:00:23.828Z,1008.17
2017-01-30T01:01:29.991Z,1008.2
2017-01-30T01:02:36.227Z,1008.13
2017-01-30T01:03:42.381Z,1008.11
2017-01-30T01:04:47.584Z,1008.09
2017-01-30T01:05:53.780Z,1008.09
2017-01-30T01:06:59.919Z,1008.04
2017-01-30T01:08:06.090Z,1008.06
2017-01-30T01:09:12.342Z,1008.02
2017-01-30T01:10:18.513Z,1008.04
2017-01-30T01:11:23.698Z,1008
2017-01-30T01:12:28.869Z,1008
2017-01-30T01:13:34.075Z,1007.93
2017-01-30T01:14:38.275Z,1007.94
2017-01-30T01:15:43.521Z,1007.9
2017-01-30T01:16:46.812Z,1007.93
2017-01-30T01:17:51.069Z,1007.92
2017-01-30T01:18:57.230Z,1007.92
2017-01-30T01:20:01.431Z,1007.9
2017-01-30T01:21:07.601Z,1007.88
2017-01-30T01:22:12.797Z,1007.84
2017-01-30T01:23:15.102Z,1007.88
2017-01-30T01:24:21.275Z,1007.82
2017-01-30T01:25:26.467Z,1007.79
2017-01-30T01:26:31.675Z,1007.81
2017-01-30T01:27:35.905Z,1007.81
2017-01-30T01:28:42.089Z,1007.85
2017-01-30T01:29:46.384Z,1007.78
2017-01-30T01:30:51.509Z,1007.8
2017-01-30T01:31:56.681Z,1007.74
2017-01-30T01:33:01.894Z,1007.78
2017-01-30T01:34:07.093Z,1007.78
2017-01-30T01:35:12.303Z,1007.75
2017-01-30T01:36:17.604Z,1007.76
2017-01-30T01:37:23.768Z,1007.74
2017-01-30T01:38:29.993Z,1007.73
2017-01-30T01:39:35.203Z,1007.71
2017-01-30T01:40:40.398Z,1007.7
2017-01-30T01:41:44.672Z,1007.7
2017-01-30T01:42:50.863Z,1007.72
2017-01-30T01:43:56.052Z,1007.65
2017-01-30T01:45:01.254Z,1007.66
2017-01-30T01:46:07.428Z,1007.6
2017-01-30T01:47:13.597Z,1007.6
2017-01-30T01:48:18.804Z,1007.61
2017-01-30T01:49:23.952Z,1007.6
2017-01-30T01:50:30.118Z,1007.58
2017-01-30T01:51:36.284Z,1007.58
2017-01-30T01:52:42.446Z,1007.59
2017-01-30T01:53:48.611Z,1007.54
2017-01-30T01:54:54.831Z,1007.54
2017-01-30T01:56:01.033Z,1007.48
2017-01-30T01:57:06.198Z,1007.51
2017-01-30T01:58:11.407Z,1007.47
2017-01-30T01:59:15.666Z,1007.45
2017-01-30T02:00:19.841Z,1007.42
2017-01-30T02:01:25.051Z,1007.42
2017-01-30T02:02:30.255Z,1007.4
2017-01-30T02:03:36.424Z,1007.36
2017-01-30T02:04:41.670Z,1007.32
2017-01-30T02:05:46.831Z,1007.31
2017-01-30T02:06:52.032Z,1007.21
2017-01-30T02:07:58.219Z,1007.22
2017-01-30T02:09:04.384Z,1007.22
2017-01-30T02:10:10.540Z,1007.18
2017-01-30T02:11:15.846Z,1007.17
2017-01-30T02:12:20.942Z,1007.16
2017-01-30T02:13:26.142Z,1007.16
2017-01-30T02:14:32.345Z,1007.12
2017-01-30T02:15:38.512Z,1007.11
2017-01-30T02:16:43.714Z,1007.05
2017-01-30T02:17:47.009Z,1007.03
2017-01-30T02:18:53.136Z,1007.03
2017-01-30T02:19:55.429Z,1007.03
2017-01-30T02:21:00.632Z,1007.03
2017-01-30T02:22:06.803Z,1007
2017-01-30T02:23:12.964Z,1006.92
2017-01-30T02:24:18.259Z,1006.92
2017-01-30T02:25:22.468Z,1006.86
2017-01-30T02:26:27.608Z,1006.79
2017-01-30T02:27:32.817Z,1006.79
2017-01-30T02:28:38.991Z,1006.73
2017-01-30T02:29:44.157Z,1006.68
2017-01-30T02:30:49.377Z,1006.69
2017-01-30T02:31:54.562Z,1006.67
2017-01-30T02:33:00.836Z,1006.62
2017-01-30T02:34:05.057Z,1006.6
2017-01-30T02:35:11.294Z,1006.56
2017-01-30T02:36:17.452Z,1006.56
2017-01-30T02:37:22.650Z,1006.52
2017-01-30T02:38:28.809Z,1006.49
2017-01-30T02:39:34.979Z,1006.52
2017-01-30T02:40:40.404Z,1006.48
2017-01-30T02:41:44.734Z,1006.45
2017-01-30T02:42:50.892Z,1006.4
2017-01-30T02:43:56.156Z,1006.37
2017-01-30T02:45:01.351Z,1006.43
2017-01-30T02:46:06.522Z,1006.42
2017-01-30T02:47:11.758Z,1006.41
2017-01-30T02:48:17.883Z,1006.43
2017-01-30T02:49:24.037Z,1006.43
2017-01-30T02:50:29.416Z,1006.43
2017-01-30T02:51:34.586Z,1006.43
2017-01-30T02:52:38.797Z,1006.38
2017-01-30T02:53:43.985Z,1006.41
2017-01-30T02:54:48.185Z,1006.3
2017-01-30T02:55:53.408Z,1006.29
2017-01-30T02:56:59.598Z,1006.27
2017-01-30T02:58:03.839Z,1006.25
2017-01-30T02:59:10.017Z,1006.24
2017-01-30T03:00:16.174Z,1006.18
2017-01-30T03:01:21.342Z,1006.17
2017-01-30T03:02:27.509Z,1006.15
2017-01-30T03:03:32.708Z,1006.09
2017-01-30T03:04:38.875Z,1006.04
2017-01-30T03:05:45.049Z,1006.03
2017-01-30T03:06:49.314Z,1005.97
2017-01-30T03:07:53.618Z,1005.97
2017-01-30T03:08:59.865Z,1005.9
2017-01-30T03:10:06.027Z,1005.85
2017-01-30T03:11:11.327Z,1005.83
2017-01-30T03:12:17.493Z,1005.82
2017-01-30T03:13:23.666Z,1005.78
2017-01-30T03:14:27.859Z,1005.83
2017-01-30T03:15:32.089Z,1005.75
2017-01-30T03:16:38.246Z,1005.72
2017-01-30T03:17:43.547Z,1005.72
2017-01-30T03:18:48.748Z,1005.68
2017-01-30T03:19:52.947Z,1005.71
2017-01-30T03:20:57.185Z,1005.71
2017-01-30T03:22:03.353Z,1005.64
2017-01-30T03:23:06.577Z,1005.58
2017-01-30T03:24:08.847Z,1005.55
2017-01-30T03:25:15.012Z,1005.53
2017-01-30T03:26:18.283Z,1005.51
2017-01-30T03:27:22.513Z,1005.48
2017-01-30T03:28:27.719Z,1005.49
2017-01-30T03:29:30.952Z,1005.47
2017-01-30T03:30:35.311Z,1005.44
2017-01-30T03:31:41.472Z,1005.38
2017-01-30T03:32:47.698Z,1005.37
2017-01-30T03:33:53.856Z,1005.35
2017-01-30T03:34:59.046Z,1005.35
2017-01-30T03:36:04.275Z,1005.33
2017-01-30T03:37:09.469Z,1005.29
2017-01-30T03:38:15.639Z,1005.3
2017-01-30T03:39:21.815Z,1005.26
2017-01-30T03:40:27.011Z,1005.24
2017-01-30T03:41:31.215Z,1005.23
2017-01-30T03:42:37.377Z,1005.21
2017-01-30T03:43:43.565Z,1005.14
2017-01-30T03:44:48.731Z,1005.11
2017-01-30T03:45:54.887Z,1005.08
2017-01-30T03:47:00.079Z,1005.08
2017-01-30T03:48:06.252Z,1005.1
2017-01-30T03:49:12.405Z,1005.03
2017-01-30T03:50:18.584Z,1005.04
2017-01-30T03:51:24.761Z,1005
2017-01-30T03:52:28.991Z,1005.03
2017-01-30T03:53:35.160Z,1004.97
2017-01-30T03:54:41.335Z,1004.95
2017-01-30T03:55:46.565Z,1004.87
2017-01-30T03:56:52.697Z,1004.88
2017-01-30T03:57:57.909Z,1004.81
2017-01-30T03:59:04.069Z,1004.78
2017-01-30T04:00:07.333Z,1004.81
2017-01-30T04:01:13.488Z,1004.73
2017-01-30T04:02:19.765Z,1004.69
2017-01-30T04:03:24.991Z,1004.68
2017-01-30T04:04:31.155Z,1004.66
2017-01-30T04:05:35.431Z,1004.59
2017-01-30T04:06:40.587Z,1004.57
2017-01-30T04:07:44.801Z,1004.59
2017-01-30T04:08:50.967Z,1004.61
2017-01-30T04:09:56.268Z,1004.59
2017-01-30T04:11:01.467Z,1004.53
2017-01-30T04:12:05.732Z,1004.48
2017-01-30T04:13:10.934Z,1004.46
2017-01-30T04:14:15.134Z,1004.51
2017-01-30T04:15:21.303Z,1004.43
2017-01-30T04:16:26.505Z,1004.46
2017-01-30T04:17:32.676Z,1004.46
2017-01-30T04:18:38.846Z,1004.4
2017-01-30T04:19:45.016Z,1004.4
2017-01-30T04:20:49.217Z,1004.36
2017-01-30T04:21:55.395Z,1004.33
2017-01-30T04:23:00.592Z,1004.36
2017-01-30T04:24:05.878Z,1004.32
2017-01-30T04:25:12.090Z,1004.31
2017-01-30T04:26:15.259Z,1004.26
2017-01-30T04:27:21.425Z,1004.32
2017-01-30T04:28:27.586Z,1004.33
2017-01-30T04:29:31.845Z,1004.26
2017-01-30T04:30:37.041Z,1004.27
2017-01-30T04:31:42.342Z,1004.22
2017-01-30T04:32:47.456Z,1004.17
2017-01-30T04:33:53.606Z,1004.13
2017-01-30T04:34:59.767Z,1004.02
2017-01-30T04:36:04.969Z,1004.06
2017-01-30T04:37:10.185Z,1004
2017-01-30T04:38:15.371Z,1003.95
2017-01-30T04:39:20.750Z,1003.92
2017-01-30T04:40:26.912Z,1003.93
2017-01-30T04:41:33.075Z,1003.89
2017-01-30T04:42:36.352Z,1003.88
2017-01-30T04:43:41.546Z,1003.87
2017-01-30T04:44:46.712Z,1003.9
2017-01-30T04:45:52.881Z,1003.85
2017-01-30T04:46:58.087Z,1003.88
2017-01-30T04:48:02.341Z,1003.89
2017-01-30T04:49:07.539Z,1003.89
2017-01-30T04:50:13.694Z,1003.91
2017-01-30T04:51:18.889Z,1003.86
2017-01-30T04:52:24.056Z,1003.8
2017-01-30T04:53:30.226Z,1003.86
2017-01-30T04:54:35.416Z,1003.81
2017-01-30T04:55:40.612Z,1003.77
2017-01-30T04:56:45.833Z,1003.72
2017-01-30T04:57:51.032Z,1003.71
2017-01-30T04:58:56.233Z,1003.68
2017-01-30T05:00:02.450Z,1003.67
2017-01-30T05:01:07.607Z,1003.64
2017-01-30T05:02:12.856Z,1003.62
2017-01-30T05:03:19.018Z,1003.59
2017-01-30T05:04:24.361Z,1003.54
2017-01-30T05:05:30.420Z,1003.51
2017-01-30T05:06:36.591Z,1003.49
2017-01-30T05:07:42.758Z,1003.43
2017-01-30T05:08:47.011Z,1003.46
2017-01-30T05:09:51.178Z,1003.36
2017-01-30T05:12:01.581Z,1003.31
2017-01-30T05:13:06.768Z,1003.32
2017-01-30T05:14:12.939Z,1003.24
2017-01-30T05:15:17.173Z,1003.23
2017-01-30T05:16:22.412Z,1003.22
2017-01-30T05:17:28.560Z,1003.23
2017-01-30T05:18:34.716Z,1003.22
2017-01-30T05:19:40.886Z,1003.24
2017-01-30T05:20:46.091Z,1003.16
2017-01-30T05:21:52.252Z,1003.17
2017-01-30T05:22:57.521Z,1003.12
2017-01-30T05:24:03.690Z,1003.09
2017-01-30T05:25:06.915Z,1003.11
2017-01-30T05:26:12.116Z,1003.08
2017-01-30T05:27:16.322Z,1003.05
2017-01-30T05:28:20.550Z,1003.04
2017-01-30T05:29:25.887Z,1003.01
2017-01-30T05:30:29.147Z,1002.98
2017-01-30T05:31:33.374Z,1002.96
2017-01-30T05:32:38.578Z,1002.95
2017-01-30T05:33:43.775Z,1002.93
2017-01-30T05:34:49.949Z,1002.98
2017-01-30T05:35:56.171Z,1002.92
2017-01-30T05:37:01.365Z,1002.9
2017-01-30T05:38:07.529Z,1002.89
2017-01-30T05:39:11.764Z,1002.89
2017-01-30T05:40:16.964Z,1002.86
2017-01-30T05:41:21.250Z,1002.85
2017-01-30T05:42:27.413Z,1002.85
2017-01-30T05:43:32.607Z,1002.84
2017-01-30T05:44:37.841Z,1002.86
2017-01-30T05:45:43.977Z,1002.8
2017-01-30T05:46:50.203Z,1002.77
2017-01-30T05:47:56.373Z,1002.79
2017-01-30T05:49:02.555Z,1002.8
2017-01-30T05:50:08.715Z,1002.84
2017-01-30T05:51:13.920Z,1002.83
2017-01-30T05:52:20.079Z,1002.84
2017-01-30T05:53:25.349Z,1002.84
2017-01-30T05:54:30.545Z,1002.76
2017-01-30T05:55:36.815Z,1002.81
2017-01-30T05:56:42.996Z,1002.78
2017-01-30T05:57:48.165Z,1002.8
2017-01-30T05:58:53.331Z,1002.77
2017-01-30T05:59:59.501Z,1002.77
2017-01-30T06:01:04.711Z,1002.75
2017-01-30T06:02:09.962Z,1002.72
2017-01-30T06:03:16.136Z,1002.68
2017-01-30T06:04:19.380Z,1002.67
2017-01-30T06:05:24.578Z,1002.7
2017-01-30T06:06:30.818Z,1002.75
2017-01-30T06:07:36.987Z,1002.71
2017-01-30T06:08:42.154Z,1002.68
2017-01-30T06:09:48.329Z,1002.64
2017-01-30T06:10:53.533Z,1002.61
2017-01-30T06:11:58.732Z,1002.59
2017-01-30T06:13:03.958Z,1002.62
2017-01-30T06:14:10.122Z,1002.56
2017-01-30T06:15:15.449Z,1002.58
2017-01-30T06:16:20.647Z,1002.55
2017-01-30T06:17:26.818Z,1002.54
2017-01-30T06:18:31.993Z,1002.5
2017-01-30T06:19:36.225Z,1002.5
2017-01-30T06:20:41.424Z,1002.51
2017-01-30T06:21:45.672Z,1002.47
2017-01-30T06:22:50.871Z,1002.47
2017-01-30T06:23:56.079Z,1002.46
2017-01-30T06:25:02.250Z,1002.46
2017-01-30T06:26:07.420Z,1002.44
2017-01-30T06:27:11.622Z,1002.45
2017-01-30T06:28:17.870Z,1002.44
2017-01-30T06:29:22.061Z,1002.42
2017-01-30T06:30:27.261Z,1002.42
2017-01-30T06:31:33.429Z,1002.39
2017-01-30T06:32:37.642Z,1002.38
2017-01-30T06:33:43.840Z,1002.37
2017-01-30T06:34:50.015Z,1002.38
2017-01-30T06:35:55.217Z,1002.4
2017-01-30T06:36:59.529Z,1002.46
2017-01-30T06:38:04.632Z,1002.46
2017-01-30T06:39:09.834Z,1002.43
2017-01-30T06:40:15.032Z,1002.5
2017-01-30T06:41:20.270Z,1002.51
2017-01-30T06:42:23.540Z,1002.52
2017-01-30T06:43:29.715Z,1002.51
2017-01-30T06:44:33.935Z,1002.51
2017-01-30T06:45:40.157Z,1002.53
2017-01-30T06:46:46.319Z,1002.5
2017-01-30T06:47:50.659Z,1002.45
2017-01-30T06:48:56.844Z,1002.4
2017-01-30T06:50:03.005Z,1002.43
2017-01-30T06:51:09.171Z,1002.46
2017-01-30T06:52:12.437Z,1002.42
2017-01-30T06:53:18.651Z,1002.41
2017-01-30T06:54:23.821Z,1002.37
2017-01-30T06:55:29.982Z,1002.43
2017-01-30T06:56:36.243Z,1002.43
2017-01-30T06:57:42.408Z,1002.38
2017-01-30T06:58:47.607Z,1002.45
2017-01-30T06:59:53.780Z,1002.4
2017-01-30T07:00:58.952Z,1002.39
2017-01-30T07:02:04.152Z,1002.42
2017-01-30T07:03:10.335Z,1002.4
2017-01-30T07:04:16.455Z,1002.39
2017-01-30T07:05:22.631Z,1002.39
2017-01-30T07:06:28.810Z,1002.4
2017-01-30T07:07:33.983Z,1002.38
2017-01-30T07:08:40.151Z,1002.35
2017-01-30T07:09:46.319Z,1002.32
2017-01-30T07:10:51.490Z,1002.35
2017-01-30T07:11:57.678Z,1002.32
2017-01-30T07:13:02.875Z,1002.34
2017-01-30T07:14:08.098Z,1002.33
2017-01-30T07:15:14.275Z,1002.32
2017-01-30T07:16:20.436Z,1002.34
2017-01-30T07:17:26.606Z,1002.31
2017-01-30T07:18:32.809Z,1002.3
2017-01-30T07:19:37.035Z,1002.25
2017-01-30T07:20:42.261Z,1002.26
2017-01-30T07:21:46.518Z,1002.22
2017-01-30T07:22:52.647Z,1002.25
2017-01-30T07:23:57.840Z,1002.22
2017-01-30T07:25:04.053Z,1002.21
2017-01-30T07:26:10.246Z,1002.24
2017-01-30T07:27:15.466Z,1002.17
2017-01-30T07:28:21.635Z,1002.21
2017-01-30T07:29:27.899Z,1002.22
2017-01-30T07:30:34.066Z,1002.21
2017-01-30T07:31:39.266Z,1002.22
2017-01-30T07:32:43.473Z,1002.22
2017-01-30T07:33:49.679Z,1002.22
2017-01-30T07:34:53.913Z,1002.21
2017-01-30T07:36:00.093Z,1002.25
2017-01-30T07:37:05.300Z,1002.2
2017-01-30T07:38:11.470Z,1002.16
2017-01-30T07:39:15.668Z,1002.14
2017-01-30T07:40:20.882Z,1002.18
2017-01-30T07:41:24.137Z,1002.2
2017-01-30T07:42:29.336Z,1002.16
2017-01-30T07:43:35.497Z,1002.19
2017-01-30T07:44:40.673Z,1002.2
2017-01-30T07:45:46.838Z,1002.23
2017-01-30T07:46:53.023Z,1002.19
2017-01-30T07:47:57.229Z,1002.11
2017-01-30T07:49:01.479Z,1002.15
2017-01-30T07:50:06.655Z,1002.12
2017-01-30T07:51:10.890Z,1002.15
2017-01-30T07:52:16.093Z,1002.09
2017-01-30T07:53:22.255Z,1002.11
2017-01-30T07:54:27.455Z,1002.11
2017-01-30T07:55:33.629Z,1002.04
2017-01-30T07:56:38.796Z,1002.05
2017-01-30T07:57:45.029Z,1002.08
2017-01-30T07:58:50.224Z,1002.08
2017-01-30T07:59:55.432Z,1002.05
2017-01-30T08:01:01.675Z,1002.01
2017-01-30T08:02:05.824Z,1002.02
2017-01-30T08:03:11.025Z,1002.03
2017-01-30T08:04:15.277Z,1002.06
2017-01-30T08:05:19.499Z,1002.02
2017-01-30T08:06:24.898Z,1002.05
2017-01-30T08:07:29.137Z,1002.04
2017-01-30T08:08:34.336Z,1002
2017-01-30T08:09:37.579Z,1002.04
2017-01-30T08:10:42.810Z,1002.04
2017-01-30T08:11:48.111Z,1002.01
2017-01-30T08:12:54.251Z,1001.97
2017-01-30T08:13:59.447Z,1001.97
2017-01-30T08:15:04.654Z,1002.01
2017-01-30T08:16:10.819Z,1002.03
2017-01-30T08:17:15.054Z,1002.06
2017-01-30T08:18:20.270Z,1002.04
2017-01-30T08:19:25.499Z,1002.05
2017-01-30T08:20:29.729Z,1002.06
2017-01-30T08:21:34.931Z,1002.03
2017-01-30T08:22:40.094Z,1002.06
2017-01-30T08:23:44.324Z,1001.99
2017-01-30T08:24:50.575Z,1002.02
2017-01-30T08:25:56.747Z,1002.01
2017-01-30T08:27:03.054Z,1001.97
2017-01-30T08:28:08.243Z,1002.05
2017-01-30T08:29:13.441Z,1001.94
2017-01-30T08:30:19.667Z,1001.94
2017-01-30T08:31:24.836Z,1001.94
2017-01-30T08:32:31.026Z,1001.94
2017-01-30T08:33:36.230Z,1001.97
2017-01-30T08:34:41.427Z,1001.91
2017-01-30T08:35:46.606Z,1001.88
2017-01-30T08:36:51.777Z,1001.89
2017-01-30T08:37:57.950Z,1001.87
2017-01-30T08:39:04.158Z,1001.78
2017-01-30T08:40:09.355Z,1001.86
2017-01-30T08:41:14.558Z,1001.84
2017-01-30T08:42:19.006Z,1001.81
2017-01-30T08:43:23.223Z,1001.8
2017-01-30T08:44:28.427Z,1001.78
2017-01-30T08:45:33.626Z,1001.75
2017-01-30T08:46:38.886Z,1001.75
2017-01-30T08:47:44.055Z,1001.78
2017-01-30T08:48:49.275Z,1001.71
2017-01-30T08:49:55.431Z,1001.75
2017-01-30T08:51:00.611Z,1001.77
2017-01-30T08:52:06.818Z,1001.73
2017-01-30T08:53:09.121Z,1001.72
2017-01-30T08:54:14.282Z,1001.73
2017-01-30T08:55:16.547Z,1001.71
2017-01-30T08:56:21.826Z,1001.69
2017-01-30T08:57:27.982Z,1001.69
2017-01-30T08:58:33.194Z,1001.67
2017-01-30T08:59:38.375Z,1001.67
2017-01-30T09:00:44.554Z,1001.63
2017-01-30T09:01:50.732Z,1001.61
2017-01-30T09:02:56.022Z,1001.63
2017-01-30T09:04:02.239Z,1001.61
2017-01-30T09:05:07.387Z,1001.57
2017-01-30T09:06:13.555Z,1001.61
2017-01-30T09:07:19.728Z,1001.52
2017-01-30T09:08:25.908Z,1001.58
2017-01-30T09:09:31.136Z,1001.48
2017-01-30T09:10:36.304Z,1001.49
2017-01-30T09:11:41.476Z,1001.5
2017-01-30T09:12:46.687Z,1001.44
2017-01-30T09:13:52.832Z,1001.48
2017-01-30T09:14:57.999Z,1001.4
2017-01-30T09:16:02.242Z,1001.4
2017-01-30T09:17:06.442Z,1001.42
2017-01-30T09:18:12.614Z,1001.47
2017-01-30T09:19:18.778Z,1001.42
2017-01-30T09:20:24.025Z,1001.45
2017-01-30T09:21:29.193Z,1001.44
2017-01-30T09:22:35.356Z,1001.48
2017-01-30T09:23:41.535Z,1001.38
2017-01-30T09:24:46.820Z,1001.37
2017-01-30T09:25:52.020Z,1001.36
2017-01-30T09:26:58.195Z,1001.37
2017-01-30T09:28:03.383Z,1001.39
2017-01-30T09:29:08.586Z,1001.35
2017-01-30T09:30:13.786Z,1001.34
2017-01-30T09:31:18.966Z,1001.34
2017-01-30T09:32:25.129Z,1001.31
2017-01-30T09:33:30.375Z,1001.33
2017-01-30T09:34:36.538Z,1001.34
2017-01-30T09:35:40.764Z,1001.34
2017-01-30T09:36:45.954Z,1001.28
2017-01-30T09:37:52.125Z,1001.29
2017-01-30T09:38:56.374Z,1001.34
2017-01-30T09:40:00.833Z,1001.23
2017-01-30T09:41:06.000Z,1001.29
2017-01-30T09:42:09.281Z,1001.31
2017-01-30T09:43:15.448Z,1001.34
2017-01-30T09:44:20.625Z,1001.3
2017-01-30T09:45:26.795Z,1001.28
2017-01-30T09:46:31.997Z,1001.29
2017-01-30T09:47:36.243Z,1001.27
2017-01-30T09:48:40.447Z,1001.27
2017-01-30T09:49:45.645Z,1001.25
2017-01-30T09:50:51.812Z,1001.28
2017-01-30T09:51:57.014Z,1001.27
2017-01-30T09:53:03.208Z,1001.24
2017-01-30T09:54:09.373Z,1001.24
2017-01-30T09:55:15.537Z,1001.26
2017-01-30T09:56:19.750Z,1001.28
2017-01-30T09:57:24.936Z,1001.21
2017-01-30T09:58:29.205Z,1001.23
2017-01-30T09:59:34.394Z,1001.24
2017-01-30T10:00:40.563Z,1001.28
2017-01-30T10:01:46.721Z,1001.29
2017-01-30T10:02:52.871Z,1001.25
2017-01-30T10:03:59.022Z,1001.17
2017-01-30T10:05:04.186Z,1001.21
2017-01-30T10:06:07.433Z,1001.23
2017-01-30T10:07:13.588Z,1001.2
2017-01-30T10:08:18.769Z,1001.19
2017-01-30T10:09:24.925Z,1001.18
2017-01-30T10:10:29.210Z,1001.2
2017-01-30T10:11:33.434Z,1001.15
2017-01-30T10:12:38.679Z,1001.17
2017-01-30T10:13:44.828Z,1001.17
2017-01-30T10:14:50.982Z,1001.18
2017-01-30T10:15:55.170Z,1001.18
2017-01-30T10:16:59.386Z,1001.18
2017-01-30T10:18:03.599Z,1001.16
2017-01-30T10:19:08.787Z,1001.14
2017-01-30T10:20:14.939Z,1001.16
2017-01-30T10:21:21.103Z,1001.13
2017-01-30T10:22:26.300Z,1001.1
2017-01-30T10:23:32.445Z,1001.11
2017-01-30T10:24:37.634Z,1001.07
2017-01-30T10:25:43.892Z,1001.05
2017-01-30T10:26:50.010Z,1001.06
2017-01-30T10:27:56.163Z,1001.07
2017-01-30T10:29:01.314Z,1001.04
2017-01-30T10:30:07.481Z,1001.05
2017-01-30T10:31:12.673Z,1001.08
2017-01-30T10:32:17.826Z,1001.06
2017-01-30T10:33:23.978Z,1001.04
2017-01-30T10:34:29.306Z,1001.02
2017-01-30T10:35:34.500Z,1000.98
2017-01-30T10:36:38.695Z,1001.02
2017-01-30T10:37:42.938Z,1001.05
2017-01-30T10:38:49.067Z,1001.02
2017-01-30T10:39:54.221Z,1001.04
2017-01-30T10:41:00.419Z,1001.03
2017-01-30T10:42:06.538Z,1001.02
2017-01-30T10:43:12.703Z,1000.99
2017-01-30T10:44:17.895Z,1001.02
2017-01-30T10:45:23.066Z,1001
2017-01-30T10:46:28.238Z,1001.04
2017-01-30T10:47:34.387Z,1001
2017-01-30T10:48:40.569Z,1001.02
2017-01-30T10:49:44.724Z,1000.93
2017-01-30T10:50:50.872Z,1001
2017-01-30T10:51:56.032Z,1000.92
2017-01-30T10:53:02.191Z,1000.93
2017-01-30T10:54:08.342Z,1000.88
2017-01-30T10:55:12.637Z,1000.91
2017-01-30T10:56:17.996Z,1000.88
2017-01-30T10:57:22.169Z,1000.9
2017-01-30T10:58:27.352Z,1000.87
2017-01-30T10:59:33.507Z,1000.88
2017-01-30T11:00:38.687Z,1000.84
2017-01-30T11:01:43.935Z,1000.86
2017-01-30T11:02:49.094Z,1000.82
2017-01-30T11:03:54.304Z,1000.84
2017-01-30T11:04:59.565Z,1000.86
2017-01-30T11:06:04.745Z,1000.77
2017-01-30T11:07:09.945Z,1000.76
2017-01-30T11:08:16.137Z,1000.74
2017-01-30T11:09:19.392Z,1000.74
2017-01-30T11:10:24.588Z,1000.72
2017-01-30T11:11:30.831Z,1000.69
2017-01-30T11:12:36.038Z,1000.69
2017-01-30T11:13:42.217Z,1000.68
2017-01-30T11:14:46.460Z,1000.66
2017-01-30T11:15:51.662Z,1000.61
2017-01-30T11:16:55.889Z,1000.58
2017-01-30T11:18:02.059Z,1000.56
2017-01-30T11:19:08.237Z,1000.59
2017-01-30T11:20:14.409Z,1000.59
2017-01-30T11:21:18.609Z,1000.56
2017-01-30T11:22:22.817Z,1000.55
2017-01-30T11:23:27.027Z,1000.49
2017-01-30T11:24:30.368Z,1000.48
2017-01-30T11:25:35.568Z,1000.47
2017-01-30T11:26:41.841Z,1000.47
2017-01-30T11:27:48.010Z,1000.52
2017-01-30T11:28:54.195Z,1000.5
2017-01-30T11:29:58.397Z,1000.49
2017-01-30T11:31:03.565Z,1000.44
2017-01-30T11:32:08.797Z,1000.49
2017-01-30T11:33:13.999Z,1000.49
2017-01-30T11:34:20.162Z,1000.49
2017-01-30T11:35:26.334Z,1000.44
2017-01-30T11:36:30.550Z,1000.45
2017-01-30T11:37:35.745Z,1000.48
2017-01-30T11:38:38.972Z,1000.48
2017-01-30T11:39:44.146Z,1000.47
2017-01-30T11:40:50.318Z,1000.45
2017-01-30T11:41:54.562Z,1000.44
2017-01-30T11:43:00.728Z,1000.46
2017-01-30T11:44:06.903Z,1000.43
2017-01-30T11:45:11.141Z,1000.42
2017-01-30T11:46:15.353Z,1000.38
2017-01-30T11:47:20.564Z,1000.4
2017-01-30T11:48:25.834Z,1000.45
2017-01-30T11:49:31.043Z,1000.45
2017-01-30T11:50:34.273Z,1000.43
2017-01-30T11:51:37.572Z,1000.45
2017-01-30T11:52:41.815Z,1000.45
2017-01-30T11:53:47.977Z,1000.44
2017-01-30T11:54:54.209Z,1000.45
2017-01-30T11:55:59.402Z,1000.42
2017-01-30T11:57:05.578Z,1000.38
2017-01-30T11:58:11.754Z,1000.38
2017-01-30T11:59:16.924Z,1000.39
2017-01-30T12:00:22.095Z,1000.33
2017-01-30T12:01:26.342Z,1000.34
2017-01-30T12:02:31.508Z,1000.3
2017-01-30T12:03:36.715Z,1000.31
2017-01-30T12:04:42.881Z,1000.3
2017-01-30T12:05:49.098Z,1000.24
2017-01-30T12:06:53.294Z,1000.28
2017-01-30T12:07:59.464Z,1000.25
2017-01-30T12:09:05.669Z,1000.24
2017-01-30T12:10:10.838Z,1000.26
2017-01-30T12:11:17.002Z,1000.21
2017-01-30T12:12:23.373Z,1000.19
2017-01-30T12:13:28.567Z,1000.22
2017-01-30T12:14:34.751Z,1000.16
2017-01-30T12:15:39.970Z,1000.2
2017-01-30T12:16:45.162Z,1000.21
2017-01-30T12:17:50.411Z,1000.2
2017-01-30T12:18:53.659Z,1000.19
2017-01-30T12:19:58.925Z,1000.17
2017-01-30T12:21:03.218Z,1000.15
2017-01-30T12:22:07.457Z,1000.14
2017-01-30T12:23:10.695Z,1000.15
2017-01-30T12:24:16.157Z,1000.14
2017-01-30T12:25:22.284Z,1000.12
2017-01-30T12:26:28.457Z,1000.06
2017-01-30T12:27:33.734Z,1000.09
2017-01-30T12:28:38.943Z,1000.07
2017-01-30T12:29:43.246Z,1000.06
2017-01-30T12:30:48.443Z,1000.07
2017-01-30T12:31:53.646Z,1000.08
2017-01-30T12:32:58.845Z,1000.07
2017-01-30T12:34:04.025Z,1000.04
2017-01-30T12:35:10.197Z,1000.01
2017-01-30T12:36:15.507Z,1000.02
2017-01-30T12:37:19.717Z,1000.03
2017-01-30T12:38:23.964Z,1000
2017-01-30T12:39:29.133Z,1000.02
2017-01-30T12:40:35.352Z,1000.01
2017-01-30T12:41:39.589Z,1000.01
2017-01-30T12:42:42.830Z,999.96
2017-01-30T12:43:48.986Z,999.94
2017-01-30T12:44:54.234Z,999.92
2017-01-30T12:45:59.404Z,999.91
2017-01-30T12:47:05.614Z,999.96
2017-01-30T12:48:10.788Z,999.95
2017-01-30T12:49:15.964Z,999.94
2017-01-30T12:50:22.162Z,999.9
2017-01-30T12:51:28.435Z,999.94
2017-01-30T12:52:33.534Z,999.91
2017-01-30T12:53:37.796Z,999.91
2017-01-30T12:54:42.976Z,999.86
2017-01-30T12:55:47.210Z,999.83
2017-01-30T12:56:53.372Z,999.84
2017-01-30T12:57:58.596Z,999.82
2017-01-30T12:59:02.841Z,999.84
2017-01-30T13:00:09.063Z,999.83
2017-01-30T13:01:13.295Z,999.84
2017-01-30T13:02:16.534Z,999.77
2017-01-30T13:03:21.781Z,999.78
2017-01-30T13:04:27.997Z,999.77
2017-01-30T13:05:33.197Z,999.76
2017-01-30T13:06:37.400Z,999.74
2017-01-30T13:07:42.610Z,999.71
2017-01-30T13:08:47.801Z,999.71
2017-01-30T13:09:52.980Z,999.7
2017-01-30T13:10:57.217Z,999.65
2017-01-30T13:12:01.462Z,999.65
2017-01-30T13:13:03.730Z,999.64
2017-01-30T13:14:07.931Z,999.65
2017-01-30T13:15:14.108Z,999.59